Time;durP1;ratioP1;P1;durP2;ratioP2;P2;SDS_P1;SDS_P2;PMS_P1;PMS_P2;Temp;Humidity;BMP_temperature;BMP_pressure;BME280_temperature;BME280_humidity;BME280_pressure;Samples;Min_cycle;Max_cycle;Signal;HPM_P1;HPM_P2
2022/01/31 00:01:08;;;;;;;74.47;50.27;;;;;;;;;;5006273;28;20041;-61
2022/01/31 00:03:34;;;;;;;78.00;50.87;;;;;;;;;;5006496;28;20045;-61
2022/01/31 00:06:04;;;;;;;71.10;50.03;;;;;;;;;;5007690;28;20066;-60
2022/01/31 00:08:30;;;;;;;73.63;49.03;;;;;;;;;;5006131;28;20046;-59
2022/01/31 00:10:56;;;;;;;74.47;48.43;;;;;;;;;;5001406;28;20042;-60
2022/01/31 00:13:31;;;;;;;72.37;47.37;;;;;;;;;;4989221;28;20038;-61
2022/01/31 00:15:58;;;;;;;;;;;;;;;;;;5006663;28;20053;-61
2022/01/31 00:18:24;;;;;;;73.13;48.13;;;;;;;;;;5017872;28;20519;-61
2022/01/31 00:20:50;;;;;;;72.30;48.10;;;;;;;;;;5010423;28;20546;-61
2022/01/31 00:23:16;;;;;;;78.33;48.90;;;;;;;;;;5007252;28;20033;-60
2022/01/31 00:25:42;;;;;;;72.73;48.20;;;;;;;;;;5011826;28;20429;-60
2022/01/31 00:28:08;;;;;;;78.37;48.10;;;;;;;;;;4998549;28;20495;-61
2022/01/31 00:30:34;;;;;;;70.87;48.50;;;;;;;;;;5010304;28;20044;-61
2022/01/31 00:33:00;;;;;;;74.00;45.33;;;;;;;;;;5009733;28;20042;-60
2022/01/31 00:35:26;;;;;;;71.80;45.53;;;;;;;;;;5010727;28;20097;-61
2022/01/31 00:38:10;;;;;;;76.63;46.57;;;;;;;;;;5006983;28;20034;-61
2022/01/31 00:40:41;;;;;;;69.38;47.60;;;;;;;;;;5004777;28;20522;-61
2022/01/31 00:43:11;;;;;;;74.23;45.57;;;;;;;;;;5008708;28;20133;-61
2022/01/31 00:45:44;;;;;;;72.73;48.37;;;;;;;;;;5016716;28;20380;-60
2022/01/31 00:48:16;;;;;;;76.63;47.63;;;;;;;;;;5009939;28;20125;-61
2022/01/31 00:50:46;;;;;;;72.90;46.53;;;;;;;;;;5002554;28;20034;-61
2022/01/31 00:53:12;;;;;;;70.97;46.97;;;;;;;;;;5006671;28;20467;-61
2022/01/31 00:55:38;;;;;;;71.00;46.43;;;;;;;;;;5010965;28;20503;-60
2022/01/31 00:58:05;;;;;;;69.53;45.77;;;;;;;;;;5010016;28;20487;-61
2022/01/31 01:01:04;;;;;;;73.63;46.90;;;;;;;;;;5008928;28;20152;-60
2022/01/31 01:03:30;;;;;;;74.10;46.63;;;;;;;;;;5006358;28;20120;-61
2022/01/31 01:05:56;;;;;;;79.70;47.27;;;;;;;;;;5011259;28;20123;-61
2022/01/31 01:08:22;;;;;;;75.67;46.07;;;;;;;;;;4997533;28;20056;-61
2022/01/31 01:10:48;;;;;;;68.50;46.03;;;;;;;;;;5008742;28;20073;-61
2022/01/31 01:13:14;;;;;;;72.13;45.23;;;;;;;;;;5004035;28;20483;-61
2022/01/31 01:15:40;;;;;;;72.20;44.13;;;;;;;;;;5001961;28;20047;-61
2022/01/31 01:18:07;;;;;;;68.63;45.03;;;;;;;;;;5005735;28;20046;-61
2022/01/31 01:20:33;;;;;;;73.33;46.47;;;;;;;;;;5009428;28;20190;-60
2022/01/31 01:26:02;;;;;;;69.70;46.37;;;;;;;;;;5009177;28;20076;-60
2022/01/31 01:28:28;;;;;;;67.87;43.33;;;;;;;;;;5010096;28;20037;-61
2022/01/31 01:30:56;;;;;;;64.93;43.90;;;;;;;;;;5010436;28;20041;-61
2022/01/31 01:33:23;;;;;;;69.83;44.97;;;;;;;;;;5006911;28;20036;-61
2022/01/31 01:35:51;;;;;;;66.23;44.63;;;;;;;;;;5008817;28;20057;-60
2022/01/31 01:38:18;;;;;;;66.17;44.40;;;;;;;;;;5008589;28;20046;-61
2022/01/31 01:40:45;;;;;;;76.57;44.80;;;;;;;;;;5007671;28;20443;-61
2022/01/31 01:43:12;;;;;;;68.60;44.87;;;;;;;;;;4993050;28;20521;-60
2022/01/31 01:45:39;;;;;;;68.27;46.47;;;;;;;;;;5021101;28;20049;-60
2022/01/31 01:48:06;;;;;;;65.67;43.50;;;;;;;;;;5007644;28;20061;-61
2022/01/31 01:50:33;;;;;;;70.43;43.83;;;;;;;;;;5009954;28;20041;-60
2022/01/31 01:53:00;;;;;;;66.83;43.57;;;;;;;;;;5008565;28;20125;-55
2022/01/31 01:55:26;;;;;;;69.60;44.30;;;;;;;;;;5009572;28;20060;-60
2022/01/31 01:57:52;;;;;;;67.07;43.20;;;;;;;;;;5008709;28;20065;-60
2022/01/31 02:00:26;;;;;;;70.60;43.37;;;;;;;;;;5007603;28;20121;-61
2022/01/31 02:03:28;;;;;;;73.45;43.83;;;;;;;;;;5003477;28;20045;-60
2022/01/31 02:05:54;;;;;;;68.77;43.87;;;;;;;;;;4996543;28;20030;-61
2022/01/31 02:08:21;;;;;;;71.03;44.63;;;;;;;;;;4997157;28;20066;-60
2022/01/31 02:13:50;;;;;;;74.73;44.17;;;;;;;;;;5007581;28;20071;-60
2022/01/31 02:16:17;;;;;;;66.80;44.27;;;;;;;;;;5006309;28;20072;-61
2022/01/31 02:18:49;;;;;;;66.87;43.77;;;;;;;;;;5006146;28;20034;-60
2022/01/31 02:21:15;;;;;;;68.77;43.03;;;;;;;;;;5006276;28;20057;-61
2022/01/31 02:23:41;;;;;;;66.47;43.87;;;;;;;;;;5008166;28;20042;-60
2022/01/31 02:26:07;;;;;;;68.40;44.73;;;;;;;;;;5009268;28;20111;-60
2022/01/31 02:28:35;;;;;;;66.70;42.27;;;;;;;;;;5007181;28;20038;-60
2022/01/31 02:31:02;;;;;;;65.53;44.30;;;;;;;;;;5006691;28;20087;-60
2022/01/31 02:33:28;;;;;;;69.70;43.77;;;;;;;;;;5007039;28;20124;-60
2022/01/31 02:35:59;;;;;;;70.40;44.67;;;;;;;;;;5003585;28;20048;-60
2022/01/31 02:38:26;;;;;;;69.87;44.23;;;;;;;;;;5006004;28;20050;-60
2022/01/31 02:40:52;;;;;;;69.83;43.40;;;;;;;;;;5003919;28;20116;-61
2022/01/31 02:43:25;;;;;;;68.47;42.63;;;;;;;;;;5007781;28;20515;-61
2022/01/31 02:45:51;;;;;;;66.50;44.57;;;;;;;;;;5011880;28;20041;-61
2022/01/31 02:48:21;;;;;;;66.13;43.03;;;;;;;;;;5005044;28;20120;-61
2022/01/31 02:50:47;;;;;;;70.57;43.93;;;;;;;;;;5004916;28;20165;-61
2022/01/31 02:53:25;;;;;;;67.10;44.57;;;;;;;;;;5004327;28;20049;-61
2022/01/31 02:55:52;;;;;;;63.27;43.37;;;;;;;;;;5007450;28;20188;-60
2022/01/31 02:58:18;;;;;;;68.27;45.47;;;;;;;;;;5006339;28;20048;-61
2022/01/31 03:00:45;;;;;;;66.03;44.50;;;;;;;;;;5004229;28;20415;-61
2022/01/31 03:03:11;;;;;;;68.10;44.50;;;;;;;;;;5004780;28;20523;-61
2022/01/31 03:05:37;;;;;;;66.17;42.90;;;;;;;;;;5007654;28;20088;-61
2022/01/31 03:08:03;;;;;;;64.63;42.80;;;;;;;;;;5007575;28;20070;-60
2022/01/31 03:10:29;;;;;;;71.63;43.47;;;;;;;;;;5022271;28;20046;-59
2022/01/31 03:12:55;;;;;;;70.30;44.67;;;;;;;;;;5008776;28;20034;-60
2022/01/31 03:15:21;;;;;;;68.73;45.87;;;;;;;;;;5005376;28;20069;-61
2022/01/31 03:17:49;;;;;;;70.40;44.60;;;;;;;;;;5007286;28;20503;-61
2022/01/31 03:20:16;;;;;;;67.50;45.47;;;;;;;;;;5005754;28;20066;-61
2022/01/31 03:22:42;;;;;;;67.50;45.70;;;;;;;;;;5004521;28;20042;-60
2022/01/31 03:25:09;;;;;;;67.77;45.73;;;;;;;;;;5001668;28;20046;-61
2022/01/31 03:27:35;;;;;;;70.67;45.73;;;;;;;;;;4998923;28;20053;-61
2022/01/31 03:30:01;;;;;;;74.13;46.97;;;;;;;;;;5006918;28;20081;-59
2022/01/31 03:32:27;;;;;;;75.20;47.40;;;;;;;;;;5008537;28;20042;-61
2022/01/31 03:34:53;;;;;;;72.20;45.37;;;;;;;;;;5002580;28;20380;-61
2022/01/31 03:37:19;;;;;;;70.37;46.27;;;;;;;;;;5007592;28;20450;-61
2022/01/31 03:39:46;;;;;;;72.47;48.50;;;;;;;;;;5007507;28;20038;-61
2022/01/31 03:42:15;;;;;;;74.60;50.20;;;;;;;;;;5007540;28;20093;-61
2022/01/31 03:44:43;;;;;;;70.63;47.60;;;;;;;;;;5002701;28;20041;-60
2022/01/31 03:47:09;;;;;;;74.27;49.07;;;;;;;;;;5008691;28;20030;-60
2022/01/31 03:49:35;;;;;;;68.47;47.57;;;;;;;;;;5005974;28;20041;-60
2022/01/31 03:52:01;;;;;;;75.27;50.57;;;;;;;;;;5007630;28;20083;-61
2022/01/31 03:54:27;;;;;;;78.90;51.27;;;;;;;;;;5005464;28;20046;-61
2022/01/31 03:56:53;;;;;;;73.03;46.67;;;;;;;;;;5003624;28;20049;-61
2022/01/31 03:59:19;;;;;;;74.43;48.33;;;;;;;;;;5007457;28;20519;-61
2022/01/31 04:01:45;;;;;;;74.07;49.10;;;;;;;;;;5012624;28;20037;-61
2022/01/31 04:04:13;;;;;;;76.17;49.73;;;;;;;;;;5000746;28;20038;-61
2022/01/31 04:06:40;;;;;;;76.53;50.43;;;;;;;;;;5008034;28;20066;-61
2022/01/31 04:09:06;;;;;;;81.07;51.00;;;;;;;;;;5008058;28;20914;-61
2022/01/31 04:11:32;;;;;;;79.17;52.07;;;;;;;;;;5008292;28;20088;-61
2022/01/31 04:13:58;;;;;;;81.67;50.37;;;;;;;;;;5006140;28;20039;-61
2022/01/31 04:16:24;;;;;;;79.33;49.83;;;;;;;;;;5011039;28;20057;-61
2022/01/31 04:18:50;;;;;;;77.70;50.50;;;;;;;;;;5003462;28;20046;-60
2022/01/31 04:21:16;;;;;;;81.83;51.97;;;;;;;;;;4992872;28;20031;-61
2022/01/31 04:23:42;;;;;;;78.27;51.67;;;;;;;;;;5009478;28;20034;-61
2022/01/31 04:26:12;;;;;;;79.90;52.97;;;;;;;;;;5010297;28;20042;-61
2022/01/31 04:28:48;;;;;;;76.93;51.07;;;;;;;;;;5008890;28;20042;-61
2022/01/31 04:31:36;;;;;;;73.30;49.40;;;;;;;;;;5009507;28;20537;-61
2022/01/31 04:34:01;;;;;;;82.10;52.87;;;;;;;;;;5008450;28;20037;-60
2022/01/31 04:36:27;;;;;;;79.47;50.53;;;;;;;;;;5010867;28;20458;-61
2022/01/31 04:38:53;;;;;;;78.77;50.50;;;;;;;;;;5011329;28;20037;-61
2022/01/31 04:41:20;;;;;;;81.23;53.57;;;;;;;;;;5009893;28;20142;-61
2022/01/31 04:43:48;;;;;;;80.93;54.13;;;;;;;;;;5009147;28;20050;-61
2022/01/31 04:49:18;;;;;;;77.40;52.63;;;;;;;;;;4997749;28;20506;-61
2022/01/31 04:51:44;;;;;;;82.27;53.97;;;;;;;;;;5004095;28;20038;-61
2022/01/31 04:54:10;;;;;;;84.07;56.30;;;;;;;;;;5001267;28;20042;-61
2022/01/31 04:56:38;;;;;;;80.47;54.20;;;;;;;;;;5002166;28;20389;-61
2022/01/31 04:59:04;;;;;;;83.33;55.47;;;;;;;;;;5008012;28;20121;-61
2022/01/31 05:01:31;;;;;;;83.00;55.53;;;;;;;;;;5007714;28;20113;-59
2022/01/31 05:03:57;;;;;;;80.10;54.70;;;;;;;;;;5009325;28;20041;-60
2022/01/31 05:06:31;;;;;;;83.70;56.80;;;;;;;;;;5008471;28;20041;-61
2022/01/31 05:08:57;;;;;;;78.40;54.50;;;;;;;;;;4999210;28;20038;-61
2022/01/31 05:11:23;;;;;;;77.87;52.87;;;;;;;;;;4989217;28;20041;-61
2022/01/31 05:13:49;;;;;;;80.40;54.33;;;;;;;;;;5003551;28;20419;-61
2022/01/31 05:16:15;;;;;;;83.03;54.53;;;;;;;;;;5021286;28;20046;-61
2022/01/31 05:18:41;;;;;;;78.23;52.67;;;;;;;;;;5007730;28;20048;-61
2022/01/31 05:21:08;;;;;;;79.13;55.37;;;;;;;;;;4999400;28;20042;-61
2022/01/31 05:23:35;;;;;;;81.80;55.60;;;;;;;;;;5003752;28;20537;-61
2022/01/31 05:26:01;;;;;;;82.60;54.43;;;;;;;;;;5009741;28;20060;-60
2022/01/31 05:28:27;;;;;;;82.17;54.83;;;;;;;;;;5002266;28;20104;-61
2022/01/31 05:31:00;;;;;;;80.13;54.47;;;;;;;;;;5001733;28;20042;-61
2022/01/31 05:33:26;;;;;;;82.73;55.67;;;;;;;;;;5005712;28;20034;-61
2022/01/31 05:35:52;;;;;;;78.63;53.53;;;;;;;;;;5007730;28;20050;-61
2022/01/31 05:38:18;;;;;;;81.13;53.67;;;;;;;;;;5006645;28;20480;-61
2022/01/31 05:40:44;;;;;;;80.27;51.97;;;;;;;;;;5001271;28;20038;-61
2022/01/31 05:43:11;;;;;;;81.60;53.13;;;;;;;;;;4965590;28;1519484;-61
2022/01/31 05:45:37;;;;;;;78.63;54.13;;;;;;;;;;5011120;28;20117;-60
2022/01/31 05:48:03;;;;;;;74.00;50.93;;;;;;;;;;5009237;28;20045;-61
2022/01/31 05:50:29;;;;;;;78.60;51.23;;;;;;;;;;5009806;28;20045;-61
2022/01/31 05:52:55;;;;;;;84.87;52.83;;;;;;;;;;5002396;28;20039;-61
2022/01/31 05:55:21;;;;;;;81.97;53.30;;;;;;;;;;5004344;28;20042;-60
2022/01/31 05:57:48;;;;;;;80.17;53.77;;;;;;;;;;5007278;28;20056;-61
2022/01/31 06:00:14;;;;;;;77.60;52.83;;;;;;;;;;5008616;28;20041;-61
2022/01/31 06:02:40;;;;;;;77.00;50.37;;;;;;;;;;5007538;28;20037;-60
2022/01/31 06:05:07;;;;;;;80.30;54.60;;;;;;;;;;5007638;28;20125;-60
2022/01/31 06:07:33;;;;;;;82.67;54.67;;;;;;;;;;4995334;28;20061;-60
2022/01/31 06:10:00;;;;;;;85.27;54.00;;;;;;;;;;5005188;28;20483;-60
2022/01/31 06:12:26;;;;;;;84.27;53.43;;;;;;;;;;4993467;28;20050;-60
2022/01/31 06:14:52;;;;;;;81.57;53.67;;;;;;;;;;4998837;28;20035;-61
2022/01/31 06:17:18;;;;;;;82.63;53.60;;;;;;;;;;5005882;28;20103;-60
2022/01/31 06:19:44;;;;;;;82.23;54.10;;;;;;;;;;5008600;28;20034;-60
2022/01/31 06:22:11;;;;;;;82.77;54.90;;;;;;;;;;5001764;28;20038;-60
2022/01/31 06:24:37;;;;;;;84.83;55.63;;;;;;;;;;5000997;28;20038;-60
2022/01/31 06:27:04;;;;;;;86.93;56.57;;;;;;;;;;5003219;28;20029;-60
2022/01/31 06:29:30;;;;;;;86.93;57.43;;;;;;;;;;5005364;28;20034;-58
2022/01/31 06:31:56;;;;;;;87.20;58.37;;;;;;;;;;5003540;28;20057;-60
2022/01/31 06:34:22;;;;;;;86.93;59.37;;;;;;;;;;5005417;28;20455;-60
2022/01/31 06:36:48;;;;;;;92.57;60.93;;;;;;;;;;5023748;28;20045;-60
2022/01/31 06:39:14;;;;;;;89.63;62.00;;;;;;;;;;5004877;28;20038;-60
2022/01/31 06:41:40;;;;;;;86.73;59.53;;;;;;;;;;5006216;28;20121;-60
2022/01/31 06:44:07;;;;;;;92.00;59.47;;;;;;;;;;5003870;28;20048;-60
2022/01/31 06:46:33;;;;;;;96.87;62.37;;;;;;;;;;5008616;28;20038;-60
2022/01/31 06:48:59;;;;;;;91.87;60.50;;;;;;;;;;4998484;28;20439;-60
2022/01/31 06:51:25;;;;;;;91.83;61.67;;;;;;;;;;5018559;28;20037;-60
2022/01/31 06:53:51;;;;;;;97.07;64.43;;;;;;;;;;5004615;28;20064;-60
2022/01/31 06:56:17;;;;;;;97.03;64.57;;;;;;;;;;5007912;28;20033;-60
2022/01/31 06:58:43;;;;;;;95.63;63.17;;;;;;;;;;5005681;28;20061;-60
2022/01/31 07:01:09;;;;;;;103.30;64.23;;;;;;;;;;5003593;28;20525;-61
2022/01/31 07:03:36;;;;;;;92.77;62.30;;;;;;;;;;5004659;28;20396;-59
2022/01/31 07:06:03;;;;;;;97.40;63.20;;;;;;;;;;5002480;28;20125;-60
2022/01/31 07:08:29;;;;;;;98.20;64.43;;;;;;;;;;5000350;28;20045;-60
2022/01/31 07:10:55;;;;;;;91.23;62.03;;;;;;;;;;4993873;28;20042;-60
2022/01/31 07:13:39;;;;;;;96.23;63.57;;;;;;;;;;5000812;28;20046;-60
2022/01/31 07:16:06;;;;;;;96.67;61.90;;;;;;;;;;5002580;28;20046;-60
2022/01/31 07:18:33;;;;;;;96.93;61.97;;;;;;;;;;4999549;28;20073;-60
2022/01/31 07:20:59;;;;;;;95.00;63.27;;;;;;;;;;5005029;28;20037;-60
2022/01/31 07:26:10;;;;;;;101.72;64.70;;;;;;;;;;4989111;28;20081;-60
2022/01/31 07:28:36;;;;;;;99.03;63.27;;;;;;;;;;5004862;28;20080;-60
2022/01/31 07:31:02;;;;;;;97.53;63.27;;;;;;;;;;5002755;28;20040;-59
2022/01/31 07:33:28;;;;;;;96.67;62.87;;;;;;;;;;5005600;28;20522;-61
2022/01/31 07:35:54;;;;;;;96.80;62.67;;;;;;;;;;5004875;28;20499;-61
2022/01/31 07:38:21;;;;;;;96.87;63.80;;;;;;;;;;5006897;28;20495;-61
2022/01/31 07:40:48;;;;;;;97.40;63.93;;;;;;;;;;5007022;28;20034;-60
2022/01/31 07:43:14;;;;;;;101.20;71.40;;;;;;;;;;5005625;28;20046;-60
2022/01/31 07:45:40;;;;;;;104.63;69.10;;;;;;;;;;5011919;28;20053;-58
2022/01/31 07:48:06;;;;;;;95.73;66.30;;;;;;;;;;5006271;28;20071;-61
2022/01/31 07:50:33;;;;;;;98.47;64.93;;;;;;;;;;5006794;28;20406;-60
2022/01/31 07:53:01;;;;;;;95.83;65.63;;;;;;;;;;4988850;28;20395;-60
2022/01/31 07:55:27;;;;;;;94.10;61.37;;;;;;;;;;4993941;28;20594;-60
2022/01/31 07:57:53;;;;;;;89.73;59.47;;;;;;;;;;5037570;28;20061;-61
2022/01/31 08:00:19;;;;;;;94.80;60.27;;;;;;;;;;4992701;28;20487;-60
2022/01/31 08:02:45;;;;;;;90.57;59.10;;;;;;;;;;5004035;28;20058;-60
2022/01/31 08:14:21;;;;;;;91.33;59.27;;;;;;;;;;4997151;28;20045;-60
2022/01/31 08:16:47;;;;;;;91.17;62.13;;;;;;;;;;4995814;28;20042;-60
2022/01/31 08:19:13;;;;;;;90.93;60.13;;;;;;;;;;5007183;28;20046;-60
2022/01/31 08:21:39;;;;;;;96.43;62.77;;;;;;;;;;5015245;28;20072;-60
2022/01/31 08:24:05;;;;;;;100.23;72.90;;;;;;;;;;4997213;28;20391;-61
2022/01/31 08:26:32;;;;;;;97.87;64.57;;;;;;;;;;5002490;28;20065;-60
2022/01/31 08:29:06;;;;;;;102.13;64.30;;;;;;;;;;4999139;28;20129;-60
2022/01/31 08:31:34;;;;;;;99.63;62.77;;;;;;;;;;5000414;28;20156;-60
2022/01/31 08:34:22;;;;;;;98.07;59.53;;;;;;;;;;5005889;28;20260;-59
2022/01/31 08:36:49;;;;;;;96.73;60.50;;;;;;;;;;5007305;28;20060;-60
2022/01/31 08:39:17;;;;;;;96.17;59.87;;;;;;;;;;5003622;28;20048;-60
2022/01/31 08:41:44;;;;;;;85.80;56.33;;;;;;;;;;5022669;28;20046;-60
2022/01/31 08:44:11;;;;;;;98.00;60.23;;;;;;;;;;5020091;28;20403;-60
2022/01/31 08:46:41;;;;;;;93.17;60.50;;;;;;;;;;5008837;28;20046;-61
2022/01/31 08:49:08;;;;;;;99.00;64.53;;;;;;;;;;5009532;28;20048;-61
2022/01/31 08:51:34;;;;;;;93.30;60.03;;;;;;;;;;5010033;28;20046;-61
2022/01/31 08:54:00;;;;;;;95.67;59.43;;;;;;;;;;5012249;28;20064;-57
2022/01/31 08:56:26;;;;;;;93.00;59.40;;;;;;;;;;5012322;28;20080;-61
2022/01/31 08:58:52;;;;;;;89.13;57.20;;;;;;;;;;5006066;28;20146;-61
2022/01/31 09:01:21;;;;;;;91.27;55.73;;;;;;;;;;5003593;28;20092;-61
2022/01/31 09:06:18;;;;;;;89.63;56.03;;;;;;;;;;5002296;28;20038;-61
2022/01/31 09:08:44;;;;;;;85.03;53.70;;;;;;;;;;5011770;28;20042;-61
2022/01/31 09:11:10;;;;;;;83.00;51.00;;;;;;;;;;5004835;28;20096;-60
2022/01/31 09:13:37;;;;;;;85.97;52.33;;;;;;;;;;5009224;28;20053;-60
2022/01/31 09:16:04;;;;;;;87.13;52.43;;;;;;;;;;4999381;28;20046;-60
2022/01/31 09:18:30;;;;;;;91.70;54.50;;;;;;;;;;5006491;28;20034;-58
2022/01/31 09:20:57;;;;;;;82.47;54.77;;;;;;;;;;5007911;28;20094;-61
2022/01/31 09:23:24;;;;;;;91.00;56.80;;;;;;;;;;5007550;28;20041;-60
2022/01/31 09:25:50;;;;;;;84.50;53.30;;;;;;;;;;5005604;28;20045;-60
2022/01/31 09:28:16;;;;;;;84.93;52.83;;;;;;;;;;5005527;28;20034;-60
2022/01/31 09:30:43;;;;;;;83.20;54.30;;;;;;;;;;5006091;28;20079;-60
2022/01/31 09:33:10;;;;;;;88.90;55.83;;;;;;;;;;5008676;28;20037;-62
2022/01/31 09:35:36;;;;;;;87.30;55.37;;;;;;;;;;5006568;28;20061;-60
2022/01/31 09:38:03;;;;;;;85.43;55.37;;;;;;;;;;5000915;28;20054;-59
2022/01/31 09:40:29;;;;;;;87.83;54.87;;;;;;;;;;5008233;28;20047;-60
2022/01/31 09:43:10;;;;;;;86.80;55.53;;;;;;;;;;5004643;28;20046;-61
2022/01/31 09:48:33;;;;;;;86.83;55.43;;;;;;;;;;5008044;28;20034;-60
2022/01/31 09:51:08;;;;;;;93.37;58.07;;;;;;;;;;5003346;28;20050;-60
2022/01/31 09:53:39;;;;;;;88.00;56.27;;;;;;;;;;5007049;28;20099;-61
2022/01/31 09:56:08;;;;;;;86.90;54.63;;;;;;;;;;5006906;28;20054;-60
2022/01/31 09:58:35;;;;;;;85.13;54.83;;;;;;;;;;5008631;28;20069;-60
2022/01/31 10:01:02;;;;;;;84.73;55.70;;;;;;;;;;5021269;28;20042;-60
2022/01/31 10:03:28;;;;;;;86.80;54.97;;;;;;;;;;5004426;28;20085;-60
2022/01/31 10:05:54;;;;;;;87.33;55.73;;;;;;;;;;5006585;28;20052;-61
2022/01/31 10:08:20;;;;;;;81.23;56.43;;;;;;;;;;4996363;28;20515;-59
2022/01/31 10:10:48;;;;;;;85.13;56.60;;;;;;;;;;5009484;28;20057;-59
2022/01/31 10:16:30;;;;;;;86.17;55.37;;;;;;;;;;5007531;28;20052;-61
2022/01/31 10:19:08;;;;;;;93.97;57.07;;;;;;;;;;5006458;28;20029;-60
2022/01/31 10:21:53;;;;;;;89.73;55.97;;;;;;;;;;5006879;28;20046;-60
2022/01/31 10:24:19;;;;;;;;;;;;;;;;;;5004910;28;20034;-60
2022/01/31 10:26:45;;;;;;;80.53;53.83;;;;;;;;;;4997759;28;19917;-59
2022/01/31 10:29:12;;;;;;;84.03;54.37;;;;;;;;;;5002019;28;20042;-60
2022/01/31 10:31:38;;;;;;;81.40;54.30;;;;;;;;;;5003911;28;20045;-61
2022/01/31 10:34:22;;;;;;;93.20;55.73;;;;;;;;;;5015755;28;20041;-61
2022/01/31 10:36:48;;;;;;;83.83;56.73;;;;;;;;;;5001949;28;20057;-60
2022/01/31 10:43:23;;;;;;;84.80;54.60;;;;;;;;;;5002073;28;20038;-60
2022/01/31 10:53:41;;;;;;;86.13;54.10;;;;;;;;;;4950096;28;20496;-60
2022/01/31 10:56:08;;;;;;;86.97;56.20;;;;;;;;;;4958509;28;20047;-60
2022/01/31 10:58:34;;;;;;;88.37;54.97;;;;;;;;;;4972915;28;20129;-60
2022/01/31 11:01:13;;;;;;;90.23;56.87;;;;;;;;;;5001644;28;20365;-56
2022/01/31 11:03:40;;;;;;;86.50;55.27;;;;;;;;;;5004220;28;20399;-60
2022/01/31 11:06:08;;;;;;;86.23;56.83;;;;;;;;;;4997421;28;20050;-61
2022/01/31 11:08:34;;;;;;;87.67;57.93;;;;;;;;;;4997070;28;20038;-60
2022/01/31 11:11:00;;;;;;;92.00;57.93;;;;;;;;;;5000115;28;20050;-56
2022/01/31 11:13:27;;;;;;;85.33;55.47;;;;;;;;;;5002067;28;20053;-60
2022/01/31 11:25:05;;;;;;;87.13;56.87;;;;;;;;;;4991967;28;20462;-61
2022/01/31 11:27:31;;;;;;;90.17;59.60;;;;;;;;;;5000282;28;20048;-59
2022/01/31 11:29:58;;;;;;;88.63;58.83;;;;;;;;;;5002304;28;20491;-60
2022/01/31 11:32:25;;;;;;;88.50;58.47;;;;;;;;;;5005152;28;20530;-60
2022/01/31 11:34:51;;;;;;;92.53;59.87;;;;;;;;;;4997296;28;20054;-59
2022/01/31 11:37:18;;;;;;;93.20;58.87;;;;;;;;;;5001989;28;20092;-59
2022/01/31 11:39:52;;;;;;;87.60;57.27;;;;;;;;;;5001484;28;20045;-60
2022/01/31 11:42:20;;;;;;;83.70;57.03;;;;;;;;;;5004594;28;20038;-60
2022/01/31 11:44:55;;;;;;;86.82;57.58;;;;;;;;;;4997046;28;20073;-60
2022/01/31 11:47:25;;;;;;;82.35;57.08;;;;;;;;;;5001555;28;20540;-61
2022/01/31 11:49:55;;;;;;;88.57;56.47;;;;;;;;;;5000220;28;20042;-59
2022/01/31 11:52:22;;;;;;;85.53;55.17;;;;;;;;;;4989405;28;20073;-60
2022/01/31 11:54:51;;;;;;;88.33;56.63;;;;;;;;;;4994833;28;20034;-60
2022/01/31 11:57:19;;;;;;;87.53;56.97;;;;;;;;;;5001759;28;20046;-59
2022/01/31 11:59:49;;;;;;;88.32;56.63;;;;;;;;;;5011022;28;20134;-60
2022/01/31 12:02:15;;;;;;;78.10;52.90;;;;;;;;;;5006241;28;20038;-59
2022/01/31 12:04:48;;;;;;;79.35;54.65;;;;;;;;;;5004994;28;20209;-59
2022/01/31 12:07:36;;;;;;;78.00;51.80;;;;;;;;;;5004105;28;20450;-60
2022/01/31 12:10:03;;;;;;;61.23;42.50;;;;;;;;;;4994419;28;20499;-60
2022/01/31 12:12:42;;;;;;;71.73;45.43;;;;;;;;;;5018793;28;20076;-61
2022/01/31 12:15:39;;;;;;;60.90;43.92;;;;;;;;;;5011978;28;20081;-61
2022/01/31 12:23:57;;;;;;;70.40;45.05;;;;;;;;;;5002065;28;20092;-62
2022/01/31 12:26:27;;;;;;;64.57;43.57;;;;;;;;;;5010866;28;20042;-60
2022/01/31 12:28:54;;;;;;;69.13;44.17;;;;;;;;;;5006085;28;20042;-61
2022/01/31 12:31:31;;;;;;;70.40;45.75;;;;;;;;;;4996952;28;20038;-60
2022/01/31 12:33:57;;;;;;;69.72;44.75;;;;;;;;;;5015083;28;20048;-60
2022/01/31 12:36:32;;;;;;;70.80;45.42;;;;;;;;;;5010012;28;20121;-61
2022/01/31 12:38:58;;;;;;;74.57;45.33;;;;;;;;;;4994470;28;20052;-61
2022/01/31 12:41:29;;;;;;;68.25;42.75;;;;;;;;;;5009543;28;20062;-61
2022/01/31 12:44:15;;;;;;;71.20;40.95;;;;;;;;;;5011591;28;20103;-60
2022/01/31 12:46:50;;;;;;;57.55;39.35;;;;;;;;;;5006958;28;20068;-60
2022/01/31 12:49:19;;;;;;;58.17;36.92;;;;;;;;;;5004554;28;20054;-60
2022/01/31 12:51:55;;;;;;;55.92;38.72;;;;;;;;;;5007791;28;20051;-61
2022/01/31 12:54:22;;;;;;;61.42;37.42;;;;;;;;;;5002797;28;20049;-60
2022/01/31 12:56:48;;;;;;;53.00;34.38;;;;;;;;;;5005626;28;20054;-60
2022/01/31 12:59:15;;;;;;;50.58;32.17;;;;;;;;;;5009549;28;20165;-60
2022/01/31 13:01:43;;;;;;;43.25;29.55;;;;;;;;;;5005668;28;20040;-60
2022/01/31 13:04:23;;;;;;;46.97;32.50;;;;;;;;;;5009202;28;20041;-60
2022/01/31 13:06:50;;;;;;;47.35;33.35;;;;;;;;;;5006567;28;20736;-61
2022/01/31 13:09:27;;;;;;;46.30;32.03;;;;;;;;;;5007744;28;20092;-60
2022/01/31 13:12:01;;;;;;;49.78;34.03;;;;;;;;;;5022454;28;20042;-60
2022/01/31 13:14:29;;;;;;;48.08;33.97;;;;;;;;;;5014685;28;20034;-60
2022/01/31 13:16:59;;;;;;;52.55;35.45;;;;;;;;;;5014467;28;20045;-60
2022/01/31 13:19:25;;;;;;;56.17;36.35;;;;;;;;;;5008410;28;20034;-60
2022/01/31 13:21:52;;;;;;;48.83;33.42;;;;;;;;;;5003062;28;20042;-58
2022/01/31 13:24:19;;;;;;;49.28;33.63;;;;;;;;;;5008317;28;20038;-60
2022/01/31 13:27:04;;;;;;;47.50;33.55;;;;;;;;;;5006751;28;20026;-60
2022/01/31 13:29:32;;;;;;;47.60;34.33;;;;;;;;;;5003024;28;20037;-59
2022/01/31 13:31:58;;;;;;;48.75;33.28;;;;;;;;;;5007935;28;20049;-60
2022/01/31 13:34:40;;;;;;;50.05;35.38;;;;;;;;;;5008779;28;20054;-60
2022/01/31 13:37:26;;;;;;;55.08;36.25;;;;;;;;;;5008428;28;20046;-59
2022/01/31 13:39:56;;;;;;;50.00;35.42;;;;;;;;;;5009477;28;20428;-60
2022/01/31 13:42:25;;;;;;;46.90;33.47;;;;;;;;;;5001549;28;20046;-59
2022/01/31 13:44:54;;;;;;;45.75;32.45;;;;;;;;;;5008962;28;20089;-59
2022/01/31 13:47:37;;;;;;;47.90;32.10;;;;;;;;;;5008339;28;20491;-59
2022/01/31 13:50:14;;;;;;;48.10;32.65;;;;;;;;;;5003823;28;20054;-60
2022/01/31 13:52:56;;;;;;;45.88;33.55;;;;;;;;;;5006667;28;20042;-60
2022/01/31 13:55:23;;;;;;;45.67;32.45;;;;;;;;;;4995405;28;20053;-60
2022/01/31 13:57:49;;;;;;;49.50;34.45;;;;;;;;;;5019329;28;20042;-59
2022/01/31 14:00:16;;;;;;;48.58;34.47;;;;;;;;;;5000395;28;20025;-59
2022/01/31 14:02:42;;;;;;;43.22;31.85;;;;;;;;;;4999957;28;20103;-60
2022/01/31 14:05:18;;;;;;;43.13;31.50;;;;;;;;;;5004819;28;20049;-59
2022/01/31 14:07:44;;;;;;;45.05;30.05;;;;;;;;;;5004451;28;20041;-60
2022/01/31 14:10:23;;;;;;;39.17;28.42;;;;;;;;;;5001879;28;20045;-59
2022/01/31 14:12:56;;;;;;;39.25;26.48;;;;;;;;;;5001672;28;20052;-60
2022/01/31 14:15:22;;;;;;;40.72;27.92;;;;;;;;;;5008598;28;20042;-61
2022/01/31 14:17:48;;;;;;;39.08;28.17;;;;;;;;;;5008622;28;20121;-61
2022/01/31 14:20:16;;;;;;;41.05;28.73;;;;;;;;;;5005209;28;20176;-60
2022/01/31 14:22:42;;;;;;;43.50;29.02;;;;;;;;;;5011875;28;20034;-60
2022/01/31 14:25:09;;;;;;;40.50;28.10;;;;;;;;;;5004795;28;20044;-60
2022/01/31 14:27:35;;;;;;;40.95;28.38;;;;;;;;;;5006609;28;20128;-60
2022/01/31 14:30:01;;;;;;;43.40;28.48;;;;;;;;;;5002549;28;20129;-58
2022/01/31 14:32:31;;;;;;;39.55;28.42;;;;;;;;;;5005106;28;20092;-60
2022/01/31 14:34:59;;;;;;;42.72;29.95;;;;;;;;;;5002970;28;20384;-60
2022/01/31 14:37:44;;;;;;;41.72;29.33;;;;;;;;;;5007282;28;20100;-60
2022/01/31 14:40:37;;;;;;;40.33;28.50;;;;;;;;;;5000580;28;20042;-61
2022/01/31 14:48:44;;;;;;;45.65;28.65;;;;;;;;;;5008661;28;20507;-60
2022/01/31 14:51:23;;;;;;;38.63;27.77;;;;;;;;;;5005132;28;20046;-61
2022/01/31 14:53:59;;;;;;;40.05;28.58;;;;;;;;;;5003918;28;20041;-60
2022/01/31 14:56:25;;;;;;;43.72;28.15;;;;;;;;;;5001686;28;20115;-60
2022/01/31 14:58:51;;;;;;;39.13;27.65;;;;;;;;;;5008200;28;20100;-60
2022/01/31 15:01:18;;;;;;;41.95;29.70;;;;;;;;;;5008520;28;20667;-60
2022/01/31 15:03:44;;;;;;;40.60;28.05;;;;;;;;;;5006124;28;20100;-60
2022/01/31 15:06:10;;;;;;;42.95;29.45;;;;;;;;;;5005637;28;20125;-60
2022/01/31 15:08:36;;;;;;;39.50;28.45;;;;;;;;;;5011013;28;20129;-60
2022/01/31 15:11:09;;;;;;;40.67;29.65;;;;;;;;;;5005853;28;20564;-59
2022/01/31 15:13:35;;;;;;;41.80;29.85;;;;;;;;;;5005954;28;20052;-60
2022/01/31 15:16:06;;;;;;;42.70;30.25;;;;;;;;;;5008724;28;22099;-61
2022/01/31 15:18:32;;;;;;;45.75;30.73;;;;;;;;;;5012250;28;20133;-57
2022/01/31 15:21:01;;;;;;;36.97;26.45;;;;;;;;;;4994038;28;20066;-60
2022/01/31 15:23:33;;;;;;;43.20;29.92;;;;;;;;;;5000316;28;20120;-60
2022/01/31 15:25:59;;;;;;;43.90;32.97;;;;;;;;;;5003548;28;20038;-61
2022/01/31 15:28:25;;;;;;;45.47;30.50;;;;;;;;;;5006321;28;20136;-59